»·PEaware :: N9229P KAPA-KCYS

N9229P :: KAPA-KCYS

FLIGHT INFORMATION

Flight Status: Arrived
Operator: Privately registered:
United States
More flights under this callsign
Pilot: James W. (24810)
Aircraft: PIPER PA-24 COMMANCHE
(PA24)
More flights by this aircraft type
Origin: KAPA Centennial
United States
Destination: KCYS Cheyenne
United States
More flights between these airports :: More routes between these airports
Route: YELLO4 CYS EMOTY
File this flight plan on PilotEdge
Remarks: Request RNAV RWY 13 approach
Altitude:
(Current/Filed)
10,000ft
Speed:
(Current/Filed)
165kts
Departed: 03-Aug-20 03:16 PM
Arrived: 03-Aug-20 04:10 PM
Distance/Time
Traveled:
95nm/0:54
Distance/Time
To Go:
Arrived

Flight Plot

Page will automatically refresh every two minutes.

Flight plan parsing failed; only flown route is shown


Map Options




Map Legend


Flown Route
Filed Route
Departure Airport
Arrival Airport
Navaid (VOR, NDB)
Fix

Horizontal Profiles

Position Reports

Time Latitude Longitude Heading Altitude Ground
Speed
03-Aug-20 14:57 39.583026 -104.848972 269 5886ft 0kts
03-Aug-20 14:58 39.583026 -104.848972 269 5886ft 0kts
03-Aug-20 14:59 39.583026 -104.848972 269 5886ft 0kts
03-Aug-20 15:00 39.583026 -104.848972 269 5886ft 0kts
03-Aug-20 15:01 39.583026 -104.848972 269 5886ft 0kts
03-Aug-20 15:02 39.583026 -104.848972 269 5886ft 0kts
03-Aug-20 15:03 39.583026 -104.848972 269 5886ft 0kts
03-Aug-20 15:04 39.583026 -104.848972 269 5886ft 0kts
03-Aug-20 15:04 39.583026 -104.848972 269 5886ft 0kts
03-Aug-20 15:06 39.583026 -104.848972 269 5886ft 0kts
03-Aug-20 15:07 39.583026 -104.848972 269 5886ft 0kts
03-Aug-20 15:07 39.582868 -104.849239 183 5886ft 7kts
03-Aug-20 15:09 39.580479 -104.849905 177 5886ft 11kts
03-Aug-20 15:09 39.576809 -104.849731 177 5886ft 21kts
03-Aug-20 15:10 39.569828 -104.849403 177 5886ft 24kts
03-Aug-20 15:12 39.563704 -104.849130 175 5886ft 15kts
03-Aug-20 15:12 39.559650 -104.848933 177 5886ft 16kts
03-Aug-20 15:13 39.556876 -104.848844 216 5886ft 4kts
03-Aug-20 15:14 39.556832 -104.849923 293 5886ft 14kts
03-Aug-20 15:15 39.577581 -104.851403 356 6295ft 127kts
03-Aug-20 15:16 39.615661 -104.846139 36 7196ft 154kts
03-Aug-20 15:17 39.651491 -104.813681 35 7789ft 169kts
03-Aug-20 15:18 39.688418 -104.778792 35 8478ft 162kts
03-Aug-20 15:19 39.724763 -104.744341 35 9179ft 161kts
03-Aug-20 15:20 39.760905 -104.710035 35 9779ft 166kts
03-Aug-20 15:21 39.800353 -104.672483 35 9790ft 180kts
03-Aug-20 15:22 39.848830 -104.663879 356 9789ft 182kts
03-Aug-20 15:23 39.899441 -104.667787 356 9789ft 182kts
03-Aug-20 15:24 39.950102 -104.671792 356 9789ft 182kts
03-Aug-20 15:25 40.000803 -104.675804 356 9789ft 182kts
03-Aug-20 15:26 40.051375 -104.679778 356 9789ft 182kts
03-Aug-20 15:27 40.102143 -104.683796 356 9789ft 182kts
03-Aug-20 15:28 40.152817 -104.687817 356 9789ft 182kts
03-Aug-20 15:29 40.203480 -104.691840 356 9789ft 182kts
03-Aug-20 15:30 40.254091 -104.695866 356 9789ft 182kts
03-Aug-20 15:31 40.304786 -104.699904 356 9789ft 182kts
03-Aug-20 15:32 40.355461 -104.703947 356 9789ft 182kts
03-Aug-20 15:33 40.406004 -104.707985 356 9789ft 182kts
03-Aug-20 15:34 40.456739 -104.712044 356 9789ft 182kts
03-Aug-20 15:35 40.507457 -104.716109 356 9789ft 182kts
03-Aug-20 15:36 40.558016 -104.720167 356 9789ft 182kts
03-Aug-20 15:37 40.608841 -104.724262 356 9789ft 182kts
03-Aug-20 15:38 40.659402 -104.728322 356 9789ft 182kts
03-Aug-20 15:39 40.710038 -104.732405 356 9789ft 182kts
03-Aug-20 15:40 40.760790 -104.736508 356 9789ft 182kts
03-Aug-20 15:41 40.811502 -104.740604 356 9789ft 182kts
03-Aug-20 15:42 40.862068 -104.744700 356 9789ft 182kts
03-Aug-20 15:43 40.912663 -104.748813 356 9789ft 182kts
03-Aug-20 15:44 40.963485 -104.752954 356 9789ft 182kts
03-Aug-20 15:45 41.014132 -104.757062 356 9789ft 182kts
03-Aug-20 15:46 41.064637 -104.761168 356 9789ft 182kts
03-Aug-20 15:47 41.114869 -104.765268 356 9789ft 182kts
03-Aug-20 15:48 41.165552 -104.769416 356 9789ft 182kts
03-Aug-20 15:49 41.213547 -104.784251 312 9790ft 182kts
03-Aug-20 15:50 41.236827 -104.844110 295 9789ft 182kts
03-Aug-20 15:51 41.258707 -104.903671 295 9788ft 173kts
03-Aug-20 15:52 41.279113 -104.959112 295 9788ft 160kts
03-Aug-20 15:53 41.299050 -105.007633 316 9789ft 139kts
03-Aug-20 15:54 41.325425 -105.042804 314 9789ft 132kts
03-Aug-20 15:55 41.351445 -105.077459 315 9788ft 129kts
03-Aug-20 15:56 41.375325 -105.109271 314 9788ft 117kts
03-Aug-20 15:57 41.399794 -105.098085 94 9350ft 133kts
03-Aug-20 15:58 41.370619 -105.082073 179 8852ft 125kts
03-Aug-20 15:59 41.343350 -105.065626 135 8768ft 108kts
03-Aug-20 16:00 41.323063 -105.038970 134 8522ft 87kts
03-Aug-20 16:01 41.303631 -105.012891 135 8802ft 108kts
03-Aug-20 16:02 41.282366 -104.985297 135 8517ft 103kts
03-Aug-20 16:03 41.262212 -104.958739 135 8017ft 102kts
03-Aug-20 16:04 41.242323 -104.932515 134 7691ft 101kts
03-Aug-20 16:05 41.222204 -104.906141 135 7686ft 100kts
03-Aug-20 16:06 41.199969 -104.876933 135 7191ft 116kts
03-Aug-20 16:07 41.177653 -104.847626 135 6888ft 112kts
03-Aug-20 16:08 41.156254 -104.819578 135 6143ft 72kts
03-Aug-20 16:09 41.149333 -104.810445 265 6116ft 7kts

Navigation Log

Ident Type
Flight plan parsing failed, navigation log unavailable